createdAt,value
2022-12-20T00:01:50.163Z,0.50
2022-12-20T00:07:12.034Z,0.73
2022-12-20T00:12:33.734Z,0.82
2022-12-20T00:17:55.493Z,0.47
2022-12-20T00:23:17.263Z,0.50
2022-12-20T00:28:40.703Z,0.60
2022-12-20T00:34:02.476Z,0.30
2022-12-20T00:39:24.158Z,0.52
2022-12-20T00:44:45.853Z,0.60
2022-12-20T00:50:07.968Z,0.60
2022-12-20T00:55:29.716Z,0.40
2022-12-20T01:00:56.215Z,0.55
2022-12-20T01:06:19.187Z,0.47
2022-12-20T01:11:40.877Z,0.40
2022-12-20T01:17:02.642Z,0.20
2022-12-20T01:22:24.397Z,0.30
2022-12-20T01:27:46.475Z,0.50
2022-12-20T01:33:08.179Z,0.40
2022-12-20T01:38:30.137Z,0.38
2022-12-20T01:43:54.706Z,0.40
2022-12-20T01:49:24.542Z,0.45
2022-12-20T01:54:49.912Z,0.32
2022-12-20T02:00:12.452Z,0.40
2022-12-20T02:05:42.969Z,0.45
2022-12-20T02:11:38.030Z,0.40
2022-12-20T02:17:18.323Z,0.50
2022-12-20T02:22:42.726Z,0.40
2022-12-20T02:28:17.318Z,0.43
2022-12-20T02:33:43.625Z,0.50
2022-12-20T02:39:05.714Z,0.47
2022-12-20T02:44:49.185Z,0.22
2022-12-20T02:50:11.991Z,0.40
2022-12-20T02:55:54.145Z,0.50
2022-12-20T03:01:28.184Z,0.40
2022-12-20T03:07:07.444Z,0.30
2022-12-20T03:12:29.116Z,0.35
2022-12-20T03:17:50.780Z,0.43
2022-12-20T03:23:12.569Z,0.28
2022-12-20T03:28:34.264Z,0.40
2022-12-20T03:33:56.584Z,0.45
2022-12-20T03:39:18.310Z,0.45
2022-12-20T03:44:40.159Z,0.60
2022-12-20T03:50:01.915Z,0.40
2022-12-20T03:55:24.175Z,0.32
2022-12-20T04:00:45.858Z,0.45
2022-12-20T04:06:07.627Z,0.50
2022-12-20T04:11:29.476Z,0.45
2022-12-20T04:16:51.241Z,0.40
2022-12-20T04:22:12.987Z,0.40
2022-12-20T04:27:34.673Z,0.30
2022-12-20T04:32:56.450Z,0.60
2022-12-20T04:38:19.647Z,0.30
2022-12-20T04:43:41.311Z,0.50
2022-12-20T04:49:03.195Z,0.73
2022-12-20T04:54:27.083Z,0.30
2022-12-20T04:59:48.754Z,0.57
2022-12-20T05:05:10.604Z,0.40
2022-12-20T05:10:32.286Z,0.30
2022-12-20T05:15:55.811Z,0.40
2022-12-20T05:21:36.281Z,0.20
2022-12-20T05:26:58.023Z,0.35
2022-12-20T05:32:19.725Z,0.30
2022-12-20T05:37:41.729Z,0.30
2022-12-20T05:43:03.633Z,0.40
2022-12-20T05:48:25.420Z,0.32
2022-12-20T05:53:47.568Z,0.35
2022-12-20T05:59:09.647Z,0.30
2022-12-20T06:04:32.565Z,0.43
2022-12-20T06:09:54.318Z,0.30
2022-12-20T06:15:16.215Z,0.43
2022-12-20T06:20:38.297Z,0.30
2022-12-20T06:25:59.987Z,0.50
2022-12-20T06:31:21.930Z,0.50
2022-12-20T06:36:43.723Z,0.60
2022-12-20T06:42:05.902Z,0.65
2022-12-20T06:47:27.715Z,0.45
2022-12-20T06:52:49.439Z,0.40
2022-12-20T06:58:11.202Z,0.47
2022-12-20T07:03:33.040Z,0.70
2022-12-20T07:08:55.001Z,0.65
2022-12-20T07:14:16.684Z,0.63
2022-12-20T07:19:38.431Z,1.00
2022-12-20T07:25:00.152Z,0.73
2022-12-20T07:30:21.886Z,0.85
2022-12-20T07:35:49.413Z,0.73
2022-12-20T07:41:17.008Z,1.10
2022-12-20T07:46:38.747Z,0.80
2022-12-20T07:52:02.739Z,0.80
2022-12-20T07:57:31.353Z,0.88
2022-12-20T08:03:06.381Z,0.90
2022-12-20T08:08:28.221Z,0.80
2022-12-20T08:13:57.541Z,0.98
2022-12-20T08:19:19.919Z,0.90
2022-12-20T08:24:41.696Z,0.70
2022-12-20T08:30:04.667Z,0.90
2022-12-20T08:35:26.432Z,0.85
2022-12-20T08:40:48.135Z,0.60
2022-12-20T08:46:12.287Z,0.90
2022-12-20T08:51:34.164Z,0.57
2022-12-20T08:56:56.124Z,0.60
2022-12-20T09:02:18.586Z,0.50
2022-12-20T09:07:40.366Z,0.50
2022-12-20T09:13:02.035Z,0.55
2022-12-20T09:18:23.666Z,0.70
2022-12-20T09:23:45.575Z,0.70
2022-12-20T09:29:07.263Z,0.63
2022-12-20T09:34:28.925Z,0.70
2022-12-20T09:39:51.630Z,0.45
2022-12-20T09:45:29.267Z,0.40
2022-12-20T09:51:21.210Z,0.30
2022-12-20T09:57:08.811Z,0.47
2022-12-20T10:08:15.710Z,0.50
2022-12-20T10:13:55.692Z,0.43
2022-12-20T10:19:53.161Z,0.40
2022-12-20T10:25:23.133Z,0.50
2022-12-20T10:30:44.940Z,1.20
2022-12-20T10:36:24.257Z,1.10
2022-12-20T10:41:52.083Z,1.05
2022-12-20T10:47:33.636Z,1.05
2022-12-20T10:53:10.371Z,1.33
2022-12-20T10:58:35.705Z,1.05
2022-12-20T11:04:03.872Z,1.17
2022-12-20T11:09:32.578Z,1.38
2022-12-20T11:15:19.948Z,1.40
2022-12-20T11:20:53.334Z,1.70
2022-12-20T11:26:42.613Z,1.92
2022-12-20T11:32:28.827Z,1.52
2022-12-20T11:38:08.912Z,1.17
2022-12-20T11:44:24.018Z,1.38
2022-12-20T11:50:09.348Z,1.77
2022-12-20T11:55:36.794Z,0.93
2022-12-20T12:01:04.756Z,1.40
2022-12-20T12:06:31.742Z,1.10
2022-12-20T12:12:07.716Z,1.35
2022-12-20T12:17:43.599Z,1.10
2022-12-20T12:23:24.598Z,1.08
2022-12-20T12:28:53.485Z,0.90
2022-12-20T12:35:01.267Z,0.88
2022-12-20T12:40:52.581Z,1.48
2022-12-20T12:46:20.494Z,1.10
2022-12-20T12:51:51.133Z,1.08
2022-12-20T12:57:17.959Z,1.10
2022-12-20T13:02:50.788Z,0.80
2022-12-20T13:08:17.383Z,0.80
2022-12-20T13:13:39.164Z,0.70
2022-12-20T13:19:11.257Z,0.70
2022-12-20T13:24:37.143Z,1.13
2022-12-20T13:30:22.435Z,0.57
2022-12-20T13:35:54.835Z,0.70
2022-12-20T13:41:45.699Z,0.75
2022-12-20T13:47:28.584Z,0.73
2022-12-20T13:52:51.293Z,1.15
2022-12-20T13:58:17.391Z,0.70
2022-12-20T14:03:48.229Z,0.65
2022-12-20T14:09:32.712Z,1.48
2022-12-20T14:14:55.419Z,1.52
2022-12-20T14:20:24.179Z,1.02
2022-12-20T14:25:53.202Z,0.95
2022-12-20T14:31:34.446Z,1.35
2022-12-20T14:37:35.050Z,0.80
2022-12-20T14:42:57.133Z,0.80
2022-12-20T14:48:18.834Z,1.00
2022-12-20T14:53:40.925Z,0.75
2022-12-20T14:59:15.697Z,0.80
2022-12-20T15:04:37.622Z,0.43
2022-12-20T15:09:59.329Z,0.75
2022-12-20T15:15:29.342Z,0.93
2022-12-20T15:21:05.961Z,0.63
2022-12-20T15:31:52.056Z,0.73
2022-12-20T15:37:18.240Z,0.60
2022-12-20T15:42:43.376Z,0.60
2022-12-20T15:48:05.334Z,0.52
2022-12-20T15:53:32.543Z,0.70
2022-12-20T15:58:54.573Z,0.50
2022-12-20T16:04:19.289Z,0.63
2022-12-20T16:09:40.990Z,0.60
2022-12-20T16:15:02.874Z,0.47
2022-12-20T16:20:24.635Z,0.68
2022-12-20T16:25:46.953Z,0.50
2022-12-20T16:31:17.841Z,0.70
2022-12-20T16:36:39.564Z,0.52
2022-12-20T16:42:01.796Z,0.77
2022-12-20T16:47:23.522Z,1.10
2022-12-20T16:52:46.816Z,1.10
2022-12-20T16:58:08.567Z,1.17
2022-12-20T17:03:30.262Z,1.17
2022-12-20T17:14:27.996Z,1.10
2022-12-20T17:19:49.719Z,1.10
2022-12-20T17:25:19.662Z,1.10
2022-12-20T17:30:41.336Z,0.98
2022-12-20T17:36:03.187Z,1.50
2022-12-20T17:41:31.391Z,1.17
2022-12-20T17:46:54.316Z,1.20
2022-12-20T17:52:16.133Z,1.20
2022-12-20T17:57:37.782Z,1.17
2022-12-20T18:02:59.596Z,1.00
2022-12-20T18:08:21.405Z,1.25
2022-12-20T18:13:45.066Z,1.40
2022-12-20T18:19:08.065Z,1.40
2022-12-20T18:24:29.765Z,1.35
2022-12-20T18:29:54.581Z,1.25
2022-12-20T18:35:16.482Z,1.63
2022-12-20T18:40:38.206Z,1.35
2022-12-20T18:46:07.351Z,1.27
2022-12-20T18:51:39.382Z,1.20
2022-12-20T18:57:01.108Z,1.75
2022-12-20T19:02:22.870Z,1.10
2022-12-20T19:07:44.752Z,1.23
2022-12-20T19:13:06.427Z,1.38
2022-12-20T19:18:28.428Z,1.63
2022-12-20T19:23:52.431Z,1.23
2022-12-20T19:29:14.148Z,1.42
2022-12-20T19:34:35.882Z,1.00
2022-12-20T19:39:57.621Z,1.10
2022-12-20T19:45:19.314Z,0.90
2022-12-20T19:50:40.996Z,1.58
2022-12-20T19:56:03.234Z,1.30
2022-12-20T20:01:27.788Z,0.77
2022-12-20T20:06:49.794Z,0.80
2022-12-20T20:12:11.485Z,0.80
2022-12-20T20:17:33.197Z,0.80
2022-12-20T20:22:55.009Z,0.90
2022-12-20T20:28:17.241Z,0.98
2022-12-20T20:33:39.090Z,0.80
2022-12-20T20:39:00.863Z,1.00
2022-12-20T20:44:22.597Z,1.13
2022-12-20T20:49:44.327Z,1.00
2022-12-20T20:55:07.656Z,1.23
2022-12-20T21:00:31.973Z,1.35
2022-12-20T21:06:32.772Z,1.65
2022-12-20T21:11:37.333Z,1.10
2022-12-20T21:16:59.194Z,1.63
2022-12-20T21:22:20.918Z,0.98
2022-12-20T21:27:42.623Z,1.48
2022-12-20T21:33:04.312Z,1.38
2022-12-20T21:38:26.063Z,1.45
2022-12-20T21:43:47.856Z,1.17
2022-12-20T21:49:09.586Z,2.35
2022-12-20T21:54:31.591Z,1.60
2022-12-20T21:59:53.288Z,1.00
2022-12-20T22:05:15.657Z,1.23
2022-12-20T22:10:37.478Z,1.58
2022-12-20T22:15:59.233Z,0.95
2022-12-20T22:21:24.084Z,1.40
2022-12-20T22:26:45.783Z,1.13
2022-12-20T22:32:07.650Z,1.30
2022-12-20T22:37:29.390Z,0.70
2022-12-20T22:42:51.125Z,0.90
2022-12-20T22:48:12.820Z,1.00
2022-12-20T22:53:35.708Z,0.88
2022-12-20T22:58:57.400Z,0.80
2022-12-20T23:04:19.122Z,0.52
2022-12-20T23:09:40.931Z,1.00
2022-12-20T23:15:21.046Z,0.60
2022-12-20T23:21:01.694Z,0.38
2022-12-20T23:26:23.730Z,0.50
2022-12-20T23:31:45.498Z,0.50
2022-12-20T23:37:07.253Z,0.80
2022-12-20T23:42:29.353Z,0.63
2022-12-20T23:47:51.023Z,0.40
2022-12-20T23:53:12.756Z,0.60
2022-12-20T23:58:35.194Z,0.60
